.
WxDataArchive / Data Records for 2011-08-29
2011-08-28 August 2011 2011-08-30

Data Records for Monday, 29 August 2011

Time	Temp	Chill	HIndex	Humid	Dewpt	 Wind 	HiWind	WindDir	Rain 	Barom 
-----	----	-----	------	-----	-----	------	------	-------	-----	----- 
00:00	65.2	65.2	65.2	60	51.0	0	3	90	0.00	29.896 
00:05	65.2	65.2	65.2	60	51.0	0	2	112	0.00	29.896 
00:10	65.0	65.0	65.0	61	51.2	0	2	112	0.00	29.896 
00:15	64.8	64.8	64.8	61	51.0	0	2	112	0.00	29.894 
00:20	64.7	64.7	64.7	61	50.9	0	1	112	0.00	29.894 
00:25	64.5	64.5	64.5	61	50.7	0	1	112	0.00	29.894 
00:30	64.3	64.3	64.3	61	50.6	0	1	112	0.00	29.894 
00:35	64.3	64.3	64.3	61	50.6	0	0	---	0.00	29.894 
00:40	64.0	64.0	64.0	61	50.3	0	0	---	0.00	29.894 
00:45	63.9	63.9	63.9	61	50.2	0	0	---	0.00	29.904 
00:50	63.5	63.5	63.5	62	50.2	0	0	---	0.00	29.904 
00:55	63.4	63.4	63.4	62	50.1	0	0	---	0.00	29.904 
01:00	63.1	63.1	63.1	63	50.3	0	0	---	0.00	29.908 
01:05	62.7	62.7	62.7	63	49.9	0	0	---	0.00	29.908 
01:10	62.6	62.6	62.6	64	50.2	0	0	---	0.00	29.908 
01:15	62.4	62.4	62.4	64	50.1	0	0	---	0.00	29.911 
01:20	62.3	62.3	62.3	64	50.0	0	0	---	0.00	29.911 
01:25	62.1	62.1	62.1	65	50.2	0	0	---	0.00	29.911 
01:30	62.1	62.1	62.1	65	50.2	0	0	---	0.00	29.914 
01:35	62.1	62.1	62.1	65	50.2	0	0	---	0.00	29.914 
01:40	62.1	62.1	62.1	64	49.8	0	0	---	0.00	29.914 
01:45	62.1	62.1	62.1	63	49.3	0	1	112	0.00	29.913 
01:50	62.3	62.3	62.3	63	49.5	0	1	112	0.00	29.913 
01:55	62.3	62.3	62.3	63	49.5	0	0	---	0.00	29.913 
02:00	62.3	62.3	62.3	63	49.5	0	0	---	0.00	29.921 
02:05	62.3	62.3	62.3	63	49.5	0	0	---	0.00	29.921 
02:10	62.1	62.1	62.1	64	49.8	0	0	---	0.00	29.921 
02:15	62.0	62.0	62.0	64	49.7	0	0	---	0.00	29.922 
02:20	61.8	61.8	61.8	64	49.5	0	0	---	0.00	29.922 
02:25	61.5	61.5	61.5	65	49.6	0	0	---	0.00	29.922 
02:30	61.3	61.3	61.3	65	49.4	0	0	---	0.00	29.925 
02:35	61.0	61.0	61.0	66	49.6	0	0	---	0.00	29.925 
02:40	60.7	60.7	60.7	66	49.3	0	0	---	0.00	29.925 
02:45	60.5	60.5	60.5	67	49.5	0	0	---	0.00	29.930 
02:50	60.2	60.2	60.2	68	49.6	0	0	---	0.00	29.930 
02:55	60.1	60.1	60.1	70	50.3	0	0	---	0.00	29.930 
03:00	59.9	59.9	59.9	71	50.5	0	0	---	0.00	29.925 
03:05	59.9	59.9	59.9	71	50.5	0	0	---	0.00	29.925 
03:10	59.8	59.8	59.8	72	50.8	0	0	---	0.00	29.925 
03:15	59.6	59.6	59.6	72	50.6	0	0	---	0.00	29.932 
03:20	59.5	59.5	59.5	72	50.5	0	0	---	0.00	29.932 
03:25	59.5	59.5	59.5	72	50.5	0	0	---	0.00	29.932 
03:30	59.3	59.3	59.3	72	50.3	0	0	---	0.00	29.938 
03:35	59.2	59.2	59.2	72	50.2	0	0	---	0.00	29.938 
03:40	59.2	59.2	59.2	73	50.5	0	0	---	0.00	29.938 
03:45	59.2	59.2	59.2	73	50.5	0	0	---	0.00	29.938 
03:50	59.0	59.0	59.0	73	50.4	0	0	---	0.00	29.938 
03:55	59.0	59.0	59.0	73	50.4	0	0	---	0.00	29.938 
04:00	59.0	59.0	59.0	73	50.4	0	0	---	0.00	29.944 
04:05	59.0	59.0	59.0	73	50.4	0	0	---	0.00	29.944 
04:10	58.9	58.9	58.9	73	50.3	0	0	---	0.00	29.944 
04:15	58.7	58.7	58.7	73	50.1	0	0	---	0.00	29.943 
04:20	58.7	58.7	58.7	73	50.1	0	0	---	0.00	29.943 
04:25	58.6	58.6	58.6	74	50.3	0	0	---	0.00	29.943 
04:30	58.3	58.3	58.3	74	50.0	0	0	---	0.00	29.944 
04:35	58.1	58.1	58.1	75	50.2	0	0	---	0.00	29.944 
04:40	58.0	58.0	58.0	75	50.1	0	0	---	0.00	29.944 
04:45	57.8	57.8	57.8	76	50.3	0	0	---	0.00	29.946 
04:50	57.6	57.6	57.6	77	50.4	0	0	---	0.00	29.946 
04:55	57.5	57.5	57.5	77	50.3	0	0	---	0.00	29.946 
05:00	57.2	57.2	57.2	78	50.4	0	0	---	0.00	29.948 
05:05	57.0	57.0	57.0	78	50.2	0	0	---	0.00	29.948 
05:10	56.9	56.9	56.9	79	50.5	0	0	---	0.00	29.948 
05:15	56.6	56.6	56.6	80	50.5	0	0	---	0.00	29.954 
05:20	56.5	56.5	56.5	80	50.4	0	0	---	0.00	29.954 
05:25	56.2	56.2	56.2	81	50.4	0	0	---	0.00	29.954 
05:30	55.9	55.9	55.9	81	50.2	0	0	---	0.00	29.959 
05:35	55.7	55.7	55.7	81	50.0	0	0	---	0.00	29.959 
05:40	55.6	55.6	55.6	82	50.2	0	0	---	0.00	29.959 
05:45	55.4	55.4	55.4	82	50.0	0	0	---	0.00	29.962 
05:50	55.1	55.1	55.1	83	50.0	0	0	---	0.00	29.962 
05:55	54.8	54.8	54.8	83	49.7	0	0	---	0.00	29.962 
06:00	54.7	54.7	54.7	84	50.0	0	0	---	0.00	29.963 
06:05	54.5	54.5	54.5	84	49.8	0	0	---	0.00	29.963 
06:10	54.4	54.4	54.4	84	49.7	0	0	---	0.00	29.963 
06:15	54.1	54.1	54.1	85	49.7	0	0	---	0.00	29.975 
06:20	53.9	53.9	53.9	85	49.5	0	0	---	0.00	29.975 
06:25	53.8	53.8	53.8	86	49.7	0	0	---	0.00	29.975 
06:30	53.6	53.6	53.6	86	49.5	0	0	---	0.00	29.978 
06:35	53.6	53.6	53.6	87	49.8	0	0	---	0.00	29.978 
06:40	53.5	53.5	53.5	87	49.7	0	0	---	0.00	29.978 
06:45	53.3	53.3	53.3	87	49.5	0	0	---	0.00	29.982 
06:50	53.2	53.2	53.2	88	49.7	0	0	---	0.00	29.982 
06:55	53.1	53.1	53.1	88	49.6	0	0	---	0.00	29.982 
07:00	52.9	52.9	52.9	88	49.4	0	0	---	0.00	29.986 
07:05	52.8	52.8	52.8	88	49.3	0	0	---	0.00	29.986 
07:10	52.8	52.8	52.8	89	49.6	0	0	---	0.00	29.986 
07:15	52.6	52.6	52.6	89	49.4	0	0	---	0.00	29.998 
07:20	52.6	52.6	52.6	89	49.4	0	0	---	0.00	29.998 
07:25	52.5	52.5	52.5	89	49.4	0	0	---	0.00	29.998 
07:30	52.5	52.5	52.5	90	49.7	0	0	---	0.00	30.005 
07:35	52.6	52.6	52.6	90	49.7	0	0	---	0.00	30.005 
07:40	52.8	52.8	52.8	90	49.9	0	0	---	0.00	30.005 
07:45	52.9	52.9	52.9	90	50.0	0	0	---	0.00	30.013 
07:50	53.2	53.2	53.2	90	50.3	0	0	---	0.00	30.013 
07:55	53.6	53.6	53.6	91	51.0	0	0	---	0.00	30.013 
08:00	54.1	54.1	54.1	90	51.2	0	0	---	0.00	30.018 
08:05	54.7	54.7	54.7	91	52.1	0	0	---	0.00	30.018 
08:10	55.4	55.4	55.4	90	52.5	0	0	---	0.00	30.018 
08:15	56.3	56.3	56.3	89	53.1	0	0	---	0.00	30.023 
08:20	57.5	57.5	57.5	86	53.3	0	0	---	0.00	30.023 
08:25	58.7	58.7	58.7	84	53.9	0	0	---	0.00	30.023 
08:30	59.8	59.8	59.8	78	52.9	0	0	---	0.00	30.026 
08:35	60.7	60.7	60.7	74	52.4	0	0	---	0.00	30.026 
08:40	61.5	61.5	61.5	72	52.4	0	0	---	0.00	30.026 
08:45	62.0	62.0	62.0	70	52.1	0	0	---	0.00	30.025 
08:50	62.1	62.1	62.1	66	50.6	1	3	112	0.00	30.025 
08:55	62.4	62.4	62.4	67	51.3	0	2	112	0.00	30.025 
09:00	62.7	62.7	62.7	67	51.6	0	2	112	0.00	30.034 
09:05	62.7	62.7	62.7	65	50.8	1	4	112	0.00	30.034 
09:10	62.7	62.7	62.7	65	50.8	1	4	112	0.00	30.034 
09:15	62.9	62.9	62.9	67	51.8	0	1	112	0.00	30.037 
09:20	63.2	63.2	63.2	65	51.2	0	2	112	0.00	30.037 
09:25	63.5	63.5	63.5	62	50.2	0	2	112	0.00	30.037 
09:30	64.0	64.0	64.0	61	50.3	0	2	112	0.00	30.042 
09:35	64.3	64.3	64.3	62	51.0	0	2	112	0.00	30.042 
09:40	64.7	64.7	64.7	61	50.9	1	3	68	0.00	30.042 
09:45	65.0	65.0	65.0	60	50.8	1	2	68	0.00	30.041 
09:50	65.2	65.2	65.2	59	50.5	0	1	180	0.00	30.041 
09:55	65.5	65.5	65.5	59	50.8	0	3	112	0.00	30.041 
10:00	65.8	65.8	65.8	57	50.1	1	4	68	0.00	30.042 
10:05	66.0	66.0	66.0	56	49.8	1	4	68	0.00	30.042 
10:10	66.8	66.8	66.8	55	50.1	0	2	68	0.00	30.042 
10:15	67.8	67.8	67.8	54	50.5	0	2	68	0.00	30.042 
10:20	69.1	69.1	69.1	51	50.2	0	1	68	0.00	30.042 
10:25	69.9	69.9	69.9	49	49.9	1	4	68	0.00	30.042 
10:30	70.1	70.1	70.1	50	50.6	2	5	68	0.00	30.041 
10:35	70.3	70.3	70.3	50	50.8	1	3	68	0.00	30.041 
10:40	70.9	70.9	70.9	49	50.8	1	5	68	0.00	30.041 
10:45	71.5	71.5	71.5	47	50.2	1	2	112	0.00	30.043 
10:50	72.1	72.1	72.1	46	50.2	1	3	112	0.00	30.043 
10:55	73.0	73.0	73.0	45	50.4	0	1	135	0.00	30.043 
11:00	73.7	73.7	73.7	43	49.8	1	5	90	0.00	30.048 
11:05	74.0	74.0	74.0	42	49.4	1	4	135	0.00	30.048 
11:10	74.0	74.0	74.0	42	49.4	1	4	90	0.00	30.048 
11:15	74.4	74.4	74.4	43	50.4	0	2	135	0.00	30.052 
11:20	74.4	74.4	74.4	42	49.8	2	5	90	0.00	30.052 
11:25	74.6	74.6	74.6	42	50.0	1	3	90	0.00	30.052 
11:30	74.9	74.9	74.9	40	48.9	1	4	90	0.00	30.050 
11:35	75.1	75.1	77.5	40	49.1	1	5	90	0.00	30.050 
11:40	75.1	75.1	77.5	39	48.4	1	5	90	0.00	30.050 
11:45	74.9	74.9	74.9	40	48.9	1	5	90	0.00	30.050 
11:50	75.1	75.1	77.5	40	49.1	1	5	90	0.00	30.050 
11:55	75.3	75.3	77.5	39	48.6	1	4	112	0.00	30.050 
12:00	75.1	75.1	77.5	39	48.4	1	4	68	0.00	30.049 
12:05	75.3	75.3	77.5	39	48.6	1	3	68	0.00	30.049 
12:10	75.6	75.6	77.7	40	49.6	1	5	68	0.00	30.049 
12:15	75.4	75.4	77.6	39	48.7	2	5	90	0.00	30.051 
12:20	75.1	75.1	77.5	39	48.4	2	5	90	0.00	30.051 
12:25	75.3	75.3	77.5	39	48.6	0	3	112	0.00	30.051 
12:30	76.0	76.0	77.8	39	49.2	1	5	135	0.00	30.041 
12:35	76.0	76.0	77.7	37	47.8	2	6	90	0.00	30.041 
12:40	76.3	76.3	77.7	35	46.6	1	3	135	0.00	30.041 
12:45	76.1	76.1	77.6	34	45.7	3	9	90	0.00	30.041 
12:50	76.0	76.0	77.6	36	47.1	2	5	90	0.00	30.041 
12:55	76.0	76.0	77.5	34	45.6	2	4	112	0.00	30.041 
13:00	76.0	76.0	77.6	36	47.1	2	6	90	0.00	30.042 
13:05	76.3	76.3	77.8	37	48.1	1	4	112	0.00	30.042 
13:10	76.8	76.8	78.0	37	48.5	1	3	112	0.00	30.042 
13:15	77.4	77.4	78.1	35	47.6	1	4	68	0.00	30.040 
13:20	77.6	77.6	78.2	34	47.0	1	4	112	0.00	30.040 
13:25	77.6	77.6	78.2	34	47.0	2	6	112	0.00	30.040 
13:30	76.8	76.8	77.8	33	45.5	3	5	112	0.00	30.038 
13:35	76.7	76.7	77.9	35	47.0	2	4	90	0.00	30.038 
13:40	76.7	76.7	77.8	34	46.2	2	5	90	0.00	30.038 
13:45	76.5	76.5	77.7	33	45.2	2	5	68	0.00	30.042 
13:50	76.5	76.5	77.7	33	45.2	1	4	112	0.00	30.042 
13:55	76.5	76.5	77.4	29	41.9	2	5	90	0.00	30.042 
14:00	76.7	76.7	77.4	28	41.1	0	2	90	0.00	30.047 
14:05	77.2	77.2	77.6	28	41.6	1	4	112	0.00	30.047 
14:10	77.6	77.6	77.9	29	42.8	0	3	112	0.00	30.047 
14:15	77.9	77.9	77.7	25	39.2	0	2	112	0.00	30.047 
14:20	78.1	78.1	78.0	28	42.3	1	3	112	0.00	30.047 
14:25	77.7	77.7	78.0	30	43.8	2	6	112	0.00	30.047 
14:30	77.6	77.6	77.9	30	43.7	2	5	112	0.00	30.047 
14:35	77.4	77.4	77.9	31	44.4	0	3	68	0.00	30.047 
14:40	77.4	77.4	77.8	29	42.6	1	4	68	0.00	30.047 
14:45	77.4	77.4	77.7	28	41.7	0	2	90	0.00	30.045 
14:50	77.7	77.7	78.0	30	43.8	1	3	90	0.00	30.045 
14:55	77.9	77.9	77.9	28	42.1	2	5	90	0.00	30.045 
15:00	77.7	77.7	78.0	30	43.8	2	5	90	0.00	30.039 
15:05	77.2	77.2	77.9	32	45.0	1	7	90	0.00	30.039 
15:10	77.6	77.6	77.8	28	41.9	1	2	180	0.00	30.039 
15:15	77.7	77.7	77.8	27	41.0	1	6	90	0.00	30.039 
15:20	78.1	78.1	77.9	26	40.4	0	3	90	0.00	30.039 
15:25	77.9	77.9	77.8	26	40.2	2	5	90	0.00	30.039 
15:30	77.6	77.6	77.5	24	37.9	1	3	90	0.00	30.036 
15:35	77.7	77.7	77.6	25	39.1	0	2	90	0.00	30.036 
15:40	78.3	78.3	78.0	26	40.6	0	2	90	0.00	30.036 
15:45	78.6	78.6	78.2	27	41.8	0	2	90	0.00	30.035 
15:50	79.0	79.0	78.4	26	41.2	2	5	90	0.00	30.035 
15:55	78.5	78.5	78.0	25	39.7	1	4	90	0.00	30.035 
16:00	78.5	78.5	78.2	27	41.7	0	3	90	0.00	30.035 
16:05	78.6	78.6	78.2	27	41.8	1	3	90	0.00	30.035 
16:10	78.6	78.6	78.2	27	41.8	1	5	90	0.00	30.035 
16:15	78.5	78.5	78.4	30	44.5	1	4	90	0.00	30.030 
16:20	78.1	78.1	78.0	28	42.3	1	3	90	0.00	30.030 
16:25	77.7	77.7	77.8	28	42.0	2	5	90	0.00	30.030 
16:30	77.4	77.4	77.9	31	44.4	1	4	90	0.00	30.030 
16:35	77.4	77.4	77.7	28	41.7	0	3	112	0.00	30.030 
16:40	77.6	77.6	77.9	29	42.8	1	5	112	0.00	30.030 
16:45	77.4	77.4	77.7	28	41.7	1	4	90	0.00	30.025 
16:50	77.4	77.4	77.9	31	44.4	0	2	90	0.00	30.025 
16:55	77.4	77.4	77.6	27	40.8	2	5	90	0.00	30.025 
17:00	77.4	77.4	77.7	28	41.7	1	3	112	0.00	30.024 
17:05	77.2	77.2	77.6	27	40.6	1	4	90	0.00	30.024 
17:10	77.2	77.2	77.6	28	41.6	0	2	90	0.00	30.024 
17:15	77.0	77.0	77.6	29	42.3	2	6	90	0.00	30.026 
17:20	77.0	77.0	77.5	28	41.4	0	2	90	0.00	30.026 
17:25	77.0	77.0	77.5	27	40.4	0	1	90	0.00	30.026 
17:30	77.0	77.0	77.5	28	41.4	1	3	90	0.00	30.024 
17:35	77.0	77.0	77.7	30	43.2	1	5	90	0.00	30.024 
17:40	76.8	76.8	77.8	33	45.5	1	4	90	0.00	30.024 
17:45	76.8	76.8	77.7	32	44.7	1	3	90	0.00	30.025 
17:50	76.7	76.7	77.6	31	43.8	0	4	90	0.00	30.025 
17:55	76.7	76.7	77.6	31	43.8	1	4	90	0.00	30.025 
18:00	76.5	76.5	77.4	29	41.9	1	3	90	0.00	30.027 
18:05	76.1	76.1	77.3	30	42.4	1	4	68	0.00	30.027 
18:10	76.0	76.0	77.3	31	43.2	1	3	68	0.00	30.027 
18:15	75.8	75.8	77.3	31	43.0	1	3	68	0.00	30.029 
18:20	75.8	75.8	77.3	31	43.0	1	7	135	0.00	30.029 
18:25	75.6	75.6	77.3	32	43.6	1	4	135	0.00	30.029 
18:30	75.4	75.4	77.1	31	42.6	1	3	112	0.00	30.027 
18:35	75.3	75.3	77.2	32	43.4	1	4	112	0.00	30.027 
18:40	75.3	75.3	77.3	34	45.0	1	3	135	0.00	30.027 
18:45	75.3	75.3	77.0	30	41.7	0	2	135	0.00	30.025 
18:50	75.3	75.3	77.1	31	42.6	1	4	90	0.00	30.025 
18:55	75.3	75.3	77.1	31	42.6	1	2	90	0.00	30.025 
19:00	75.1	75.1	77.1	32	43.2	1	3	90	0.00	30.017 
19:05	74.9	74.9	74.9	33	43.8	2	4	90	0.00	30.017 
19:10	74.7	74.7	74.7	33	43.7	1	3	90	0.00	30.017 
19:15	74.6	74.6	74.6	35	45.1	1	3	90	0.00	30.020 
19:20	74.2	74.2	74.2	35	44.8	0	4	90	0.00	30.020 
19:25	74.2	74.2	74.2	35	44.8	1	3	90	0.00	30.020 
19:30	74.0	74.0	74.0	36	45.3	0	2	90	0.00	30.019 
19:35	73.9	73.9	73.9	36	45.2	0	1	90	0.00	30.019 
19:40	73.7	73.7	73.7	37	45.8	0	2	90	0.00	30.019 
19:45	73.5	73.5	73.5	38	46.3	0	2	90	0.00	30.019 
19:50	73.3	73.3	73.3	39	46.8	0	2	90	0.00	30.019 
19:55	73.2	73.2	73.2	39	46.7	0	0	---	0.00	30.019 
20:00	72.8	72.8	72.8	40	47.1	0	0	---	0.00	30.030 
20:05	72.7	72.7	72.7	41	47.6	0	0	---	0.00	30.030 
20:10	72.1	72.1	72.1	43	48.4	0	0	---	0.00	30.030 
20:15	71.8	71.8	71.8	43	48.1	0	0	---	0.00	30.025 
20:20	71.3	71.3	71.3	44	48.2	0	0	---	0.00	30.025 
20:25	70.9	70.9	70.9	45	48.5	0	0	---	0.00	30.025 
20:30	70.4	70.4	70.4	47	49.2	0	0	---	0.00	30.024 
20:35	69.9	69.9	69.9	48	49.3	0	0	---	0.00	30.024 
20:40	69.3	69.3	69.3	49	49.3	0	0	---	0.00	30.024 
20:45	68.8	68.8	68.8	50	49.4	0	0	---	0.00	30.026 
20:50	68.3	68.3	68.3	51	49.5	0	0	---	0.00	30.026 
20:55	67.8	67.8	67.8	53	50.0	0	0	---	0.00	30.026 
21:00	67.3	67.3	67.3	54	50.1	0	0	---	0.00	30.032 
21:05	66.8	66.8	66.8	55	50.1	0	0	---	0.00	30.032 
21:10	66.4	66.4	66.4	56	50.2	0	0	---	0.00	30.032 
21:15	66.1	66.1	66.1	56	49.9	0	0	---	0.00	30.037 
21:20	65.8	65.8	65.8	58	50.6	0	0	---	0.00	30.037 
21:25	65.3	65.3	65.3	59	50.6	0	0	---	0.00	30.037 
21:30	64.8	64.8	64.8	60	50.6	0	0	---	0.00	30.043 
21:35	64.5	64.5	64.5	61	50.7	0	0	---	0.00	30.043 
21:40	64.2	64.2	64.2	62	50.9	0	0	---	0.00	30.043 
21:45	63.9	63.9	63.9	63	51.1	0	0	---	0.00	30.045 
21:50	63.5	63.5	63.5	63	50.7	0	0	---	0.00	30.045 
21:55	63.2	63.2	63.2	64	50.8	0	0	---	0.00	30.045 
22:00	63.1	63.1	63.1	65	51.1	0	0	---	0.00	30.051 
22:05	62.7	62.7	62.7	66	51.2	0	0	---	0.00	30.051 
22:10	62.6	62.6	62.6	66	51.1	0	0	---	0.00	30.051 
22:15	62.3	62.3	62.3	67	51.2	0	0	---	0.00	30.051 
22:20	62.0	62.0	62.0	67	50.9	0	0	---	0.00	30.051 
22:25	61.8	61.8	61.8	68	51.1	0	0	---	0.00	30.051 
22:30	61.6	61.6	61.6	70	51.7	0	0	---	0.00	30.054 
22:35	61.5	61.5	61.5	70	51.6	0	0	---	0.00	30.054 
22:40	61.3	61.3	61.3	71	51.8	0	0	---	0.00	30.054 
22:45	61.2	61.2	61.2	71	51.7	0	0	---	0.00	30.055 
22:50	61.0	61.0	61.0	71	51.5	0	0	---	0.00	30.055 
22:55	60.7	60.7	60.7	71	51.2	0	0	---	0.00	30.055 
23:00	60.5	60.5	60.5	71	51.0	0	0	---	0.00	30.052 
23:05	60.4	60.4	60.4	73	51.7	0	0	---	0.00	30.052 
23:10	60.2	60.2	60.2	73	51.5	0	0	---	0.00	30.052 
23:15	60.1	60.1	60.1	73	51.4	0	0	---	0.00	30.052 
23:20	59.9	59.9	59.9	76	52.3	0	0	---	0.00	30.052 
23:25	59.8	59.8	59.8	77	52.6	0	0	---	0.00	30.052 
23:30	59.6	59.6	59.6	77	52.4	0	0	---	0.00	30.043 
23:35	59.5	59.5	59.5	77	52.3	0	0	---	0.00	30.043 
23:40	59.3	59.3	59.3	78	52.4	0	0	---	0.00	30.043 
23:45	59.2	59.2	59.2	78	52.3	0	0	---	0.00	30.047 
23:50	59.0	59.0	59.0	78	52.1	0	0	---	0.00	30.047 
23:55	58.9	58.9	58.9	78	52.0	0	0	---	0.00	30.047 

CoCoRaHS
IN-AL-39
A2 Web Hosting
Creative Commons License
GoDaddy
search engine by freefind advanced

loaded 2018-11-17 23:09:30 • last modified 2010-11-18 10:43:29
Privacy PolicyDisclaimer
• wx.awcolley.com is powered by PmWiki v.2002016 •
• all content (unless otherwise noted) © 2018 A W Colley